Terminal Aerodrome Forecast
Issued by NWS

Home | Current Version | Previous Version | Text Only | Print | Product List | Glossary On
Versions: 1 2 3 4 5 6 7 8 9 10 11 12 13 14 15 16 17 18 19 20 21 22 23 24
000
FTUS44 KLIX 062331
TAFHUM
TAF
KHUM 062331Z 0700/0724 18008KT P6SM FEW035
     FM070200 18004KT P6SM SCT250
      TEMPO 0709/0712 5SM BR SCT005
     FM071430 17009KT P6SM SCT045=

USA.gov is the U.S. government's official web portal to all federal, state and local government web resources and services.